Aviation Digital Data Service (ADDS)

Output produced by METARs form (0149 UTC 29 November 2020)
found at http://www.aviationweather.gov/metar/data/
 
METAR text: WSSL 290100Z 34003KT 290V040 CAVOK 27/23 Q1011
Conditions at: WSSL (SINGAPORE/SELETA, SG) observed 0100 UTC 29 November 2020
Temperature: 27.0°C (81°F)
Dewpoint: 23.0°C (73°F) [RH = 79%]
Pressure (altimeter): 29.85 inches Hg (1011.0 mb)
Winds: from the NNW (340 degrees) at 3 MPH (3 knots; 1.5 m/s)
Visibility: 6 or more miles (10+ km)
Ceiling: ceiling and visibility are OK
Clouds: unknown
Weather: no significant weather observed at this time

Forecast for: WSSL (SINGAPORE/SELETA, SG)
Text: TAF WSSL 282300Z 2900/3006 31006KT 9999 FEW015 SCT020
Forecast period: 0000 UTC 29 November 2020 to 0600 UTC 30 November 2020
Forecast type: FROM: standard forecast or significant change
Winds: from the NW (310 degrees) at 7 MPH (6 knots; 3.1 m/s)
Visibility: 6 or more miles (10+ km)
Ceiling: at least 12,000 feet AGL
Clouds: few clouds at 1500 feet AGL
scattered clouds at 2000 feet AGL
Weather: no significant weather forecast for this period